createdAt,value
2023-04-07T00:00:42.256Z,4.20
2023-04-07T00:17:06.790Z,3.80
2023-04-07T00:28:03.399Z,3.60
2023-04-07T00:33:31.539Z,3.60
2023-04-07T00:38:59.654Z,3.50
2023-04-07T00:44:30.870Z,3.40
2023-04-07T00:55:26.927Z,3.50
2023-04-07T01:01:27.458Z,3.70
2023-04-07T01:07:04.390Z,3.80
2023-04-07T01:12:58.330Z,3.90
2023-04-07T01:18:34.663Z,3.90
2023-04-07T01:24:22.264Z,4.00
2023-04-07T01:29:52.476Z,4.00
2023-04-07T01:35:22.565Z,4.10
2023-04-07T01:40:51.330Z,4.20
2023-04-07T01:46:19.697Z,4.20
2023-04-07T01:57:18.340Z,4.40
2023-04-07T02:02:55.872Z,4.40
2023-04-07T02:08:27.668Z,4.50
2023-04-07T02:13:57.776Z,4.60
2023-04-07T02:19:30.485Z,4.50
2023-04-07T02:24:58.287Z,4.50
2023-04-07T02:35:57.145Z,4.70
2023-04-07T02:46:54.097Z,4.90
2023-04-07T02:52:21.960Z,4.90
2023-04-07T02:57:49.894Z,5.00
2023-04-07T03:03:31.919Z,5.10
2023-04-07T03:09:09.597Z,5.10
2023-04-07T03:14:37.553Z,5.10
2023-04-07T03:20:07.737Z,5.10
2023-04-07T03:31:07.513Z,5.00
2023-04-07T03:36:36.093Z,4.90
2023-04-07T03:42:06.248Z,5.00
2023-04-07T04:04:03.716Z,4.80
2023-04-07T04:09:33.499Z,4.70
2023-04-07T04:26:03.725Z,4.70
2023-04-07T04:31:34.184Z,4.70
2023-04-07T04:37:02.786Z,4.60
2023-04-07T04:42:33.864Z,4.70
2023-04-07T04:48:03.592Z,4.60
2023-04-07T05:04:53.429Z,4.70
2023-04-07T05:21:26.825Z,4.60
2023-04-07T05:32:29.478Z,4.60
2023-04-07T05:37:59.564Z,4.70
2023-04-07T06:05:25.633Z,4.70
2023-04-07T06:10:56.836Z,4.70
2023-04-07T06:16:24.854Z,4.80
2023-04-07T06:21:53.428Z,4.90
2023-04-07T06:27:22.534Z,4.90
2023-04-07T06:38:19.918Z,5.00
2023-04-07T06:43:51.461Z,5.30
2023-04-07T06:49:20.194Z,5.40
2023-04-07T06:54:47.951Z,5.60
2023-04-07T07:00:17.136Z,5.80
2023-04-07T07:11:13.374Z,6.40
2023-04-07T07:27:37.547Z,7.10
2023-04-07T07:33:05.796Z,7.30
2023-04-07T07:44:05.387Z,7.50
2023-04-07T07:49:33.272Z,7.60
2023-04-07T08:00:29.425Z,7.90
2023-04-07T08:16:53.713Z,7.80
2023-04-07T08:33:17.943Z,7.70
2023-04-07T08:38:48.821Z,8.40
2023-04-07T08:44:19.676Z,8.40
2023-04-07T08:49:53.157Z,8.80
2023-04-07T08:55:22.438Z,9.10
2023-04-07T09:00:51.951Z,9.50
2023-04-07T09:11:49.642Z,9.90
2023-04-07T09:17:19.868Z,10.10
2023-04-07T09:22:48.124Z,10.40
2023-04-07T09:28:16.053Z,10.60
2023-04-07T09:33:43.992Z,11.00
2023-04-07T09:39:12.160Z,11.00
2023-04-07T09:44:44.311Z,11.00
2023-04-07T09:50:13.402Z,11.20
2023-04-07T09:55:45.355Z,11.00
2023-04-07T10:01:19.386Z,11.00
2023-04-07T10:06:48.539Z,11.00
2023-04-07T10:12:18.748Z,11.20
2023-04-07T10:17:48.710Z,11.80
2023-04-07T10:23:27.253Z,12.00
2023-04-07T10:29:08.983Z,10.90
2023-04-07T10:34:53.664Z,12.40
2023-04-07T10:40:22.978Z,12.40
2023-04-07T10:45:53.724Z,12.40
2023-04-07T10:51:21.593Z,12.80
2023-04-07T10:57:18.327Z,13.30
2023-04-07T11:02:46.765Z,13.50
2023-04-07T11:08:14.694Z,13.70
2023-04-07T11:13:44.901Z,13.50
2023-04-07T11:19:12.977Z,13.10
2023-04-07T11:24:40.936Z,12.60
2023-04-07T11:30:10.538Z,12.50
2023-04-07T11:35:38.885Z,12.60
2023-04-07T11:41:13.521Z,12.60
2023-04-07T11:46:54.986Z,12.90
2023-04-07T11:52:22.945Z,13.20
2023-04-07T11:57:52.360Z,13.10
2023-04-07T12:03:20.962Z,13.10
2023-04-07T12:08:49.341Z,13.40
2023-04-07T12:14:17.597Z,13.50
2023-04-07T12:19:46.051Z,13.50
2023-04-07T12:25:13.834Z,13.50
2023-04-07T12:30:43.694Z,13.50
2023-04-07T12:36:11.865Z,13.20
2023-04-07T12:41:40.077Z,13.00
2023-04-07T12:47:08.478Z,13.00
2023-04-07T12:52:36.628Z,13.00
2023-04-07T12:58:04.959Z,13.00
2023-04-07T13:03:33.145Z,13.00
2023-04-07T13:09:01.255Z,13.00
2023-04-07T13:14:29.110Z,12.70
2023-04-07T13:19:57.623Z,12.50
2023-04-07T13:25:25.504Z,12.30
2023-04-07T13:30:53.565Z,12.20
2023-04-07T13:36:23.278Z,12.00
2023-04-07T13:41:51.405Z,11.80
2023-04-07T13:47:20.064Z,11.70
2023-04-07T13:52:48.448Z,11.60
2023-04-07T13:58:17.245Z,11.60
2023-04-07T14:03:45.436Z,11.70
2023-04-07T14:09:13.324Z,11.70
2023-04-07T14:14:42.053Z,11.70
2023-04-07T14:20:11.005Z,11.80
2023-04-07T14:25:39.367Z,11.80
2023-04-07T14:31:07.836Z,11.90
2023-04-07T14:36:36.061Z,11.90
2023-04-07T14:42:05.689Z,12.00
2023-04-07T14:47:33.591Z,12.00
2023-04-07T14:53:02.476Z,11.80
2023-04-07T14:58:31.136Z,11.80
2023-04-07T15:04:01.086Z,11.70
2023-04-07T15:09:29.327Z,11.60
2023-04-07T15:14:57.907Z,11.50
2023-04-07T15:20:26.321Z,11.40
2023-04-07T15:25:56.288Z,11.30
2023-04-07T15:31:27.470Z,11.20
2023-04-07T15:36:55.744Z,11.20
2023-04-07T15:42:23.882Z,11.20
2023-04-07T15:47:53.939Z,11.10
2023-04-07T15:53:22.697Z,11.10
2023-04-07T15:58:50.952Z,11.10
2023-04-07T16:04:19.788Z,11.10
2023-04-07T16:09:47.964Z,11.00
2023-04-07T16:15:25.651Z,11.00
2023-04-07T16:21:02.975Z,10.90
2023-04-07T16:26:32.811Z,10.80
2023-04-07T16:32:01.132Z,10.70
2023-04-07T16:37:30.558Z,10.60
2023-04-07T16:42:58.687Z,10.40
2023-04-07T16:48:26.560Z,10.40
2023-04-07T16:53:54.365Z,10.30
2023-04-07T16:59:22.369Z,10.30
2023-04-07T17:04:50.129Z,10.10
2023-04-07T17:10:18.014Z,9.90
2023-04-07T17:15:45.770Z,9.90
2023-04-07T17:21:15.500Z,9.80
2023-04-07T17:26:46.655Z,9.70
2023-04-07T17:32:14.409Z,9.70
2023-04-07T17:37:42.446Z,9.60
2023-04-07T17:43:11.109Z,9.60
2023-04-07T17:48:39.260Z,9.50
2023-04-07T17:54:07.156Z,9.40
2023-04-07T17:59:35.045Z,9.40
2023-04-07T18:05:05.879Z,9.30
2023-04-07T18:10:33.650Z,9.20
2023-04-07T18:16:01.685Z,9.20
2023-04-07T18:21:29.671Z,9.10
2023-04-07T18:26:57.687Z,9.10
2023-04-07T18:32:25.682Z,9.00
2023-04-07T18:37:53.749Z,9.00
2023-04-07T18:43:22.418Z,9.00
2023-04-07T18:48:51.198Z,8.90
2023-04-07T18:54:19.145Z,8.90
2023-04-07T18:59:46.939Z,8.90
2023-04-07T19:05:15.383Z,8.90
2023-04-07T19:10:43.817Z,8.90
2023-04-07T19:16:12.199Z,8.90
2023-04-07T19:21:40.652Z,8.90
2023-04-07T19:27:09.102Z,8.90
2023-04-07T19:32:38.122Z,8.90
2023-04-07T19:38:07.282Z,8.90
2023-04-07T19:43:36.274Z,8.90
2023-04-07T19:49:04.238Z,8.90
2023-04-07T19:54:33.098Z,8.90
2023-04-07T20:00:01.150Z,8.90
2023-04-07T20:05:34.100Z,8.80
2023-04-07T20:11:01.936Z,8.80
2023-04-07T20:16:32.505Z,8.80
2023-04-07T20:22:00.452Z,8.70
2023-04-07T20:27:28.166Z,8.70
2023-04-07T20:32:56.258Z,8.70
2023-04-07T20:38:25.057Z,8.70
2023-04-07T20:43:54.991Z,8.60
2023-04-07T20:49:23.294Z,8.60
2023-04-07T20:54:51.474Z,8.50
2023-04-07T21:00:19.669Z,8.40
2023-04-07T21:05:48.720Z,8.40
2023-04-07T21:11:18.450Z,8.20
2023-04-07T21:16:46.441Z,8.10
2023-04-07T21:22:14.454Z,8.00
2023-04-07T21:27:42.271Z,7.90
2023-04-07T21:33:11.146Z,7.80
2023-04-07T21:38:39.995Z,7.60
2023-04-07T21:44:10.905Z,7.50
2023-04-07T21:49:39.157Z,7.40
2023-04-07T21:55:08.560Z,7.20
2023-04-07T22:00:38.422Z,7.10
2023-04-07T22:06:07.415Z,7.00
2023-04-07T22:11:36.283Z,6.80
2023-04-07T22:17:04.139Z,6.70
2023-04-07T22:22:33.836Z,6.50
2023-04-07T22:28:02.760Z,6.40
2023-04-07T22:33:30.591Z,6.30
2023-04-07T22:38:58.422Z,6.20
2023-04-07T22:44:26.610Z,6.10
2023-04-07T22:49:54.973Z,6.10
2023-04-07T22:55:22.944Z,6.00
2023-04-07T23:00:50.794Z,5.80
2023-04-07T23:06:18.568Z,5.80
2023-04-07T23:11:47.391Z,5.70
2023-04-07T23:17:16.095Z,5.60
2023-04-07T23:22:43.961Z,5.50
2023-04-07T23:28:11.700Z,5.40
2023-04-07T23:33:39.580Z,5.30
2023-04-07T23:39:07.436Z,5.30
2023-04-07T23:44:35.497Z,5.20
2023-04-07T23:50:03.489Z,5.20
2023-04-07T23:55:31.358Z,5.10
